createdAt,value
2023-03-17T00:00:50.102Z,30.83
2023-03-17T00:03:27.519Z,33.25
2023-03-17T00:05:58.800Z,35.42
2023-03-17T00:11:00.185Z,29.23
2023-03-17T00:13:32.459Z,26.33
2023-03-17T00:16:04.854Z,34.92
2023-03-17T00:18:35.769Z,28.45
2023-03-17T00:23:35.556Z,27.73
2023-03-17T00:26:07.545Z,32.20
2023-03-17T00:28:37.562Z,29.38
2023-03-17T00:31:14.897Z,36.75
2023-03-17T00:33:46.932Z,30.13
2023-03-17T00:36:19.951Z,34.10
2023-03-17T00:38:49.958Z,33.25
2023-03-17T00:41:21.638Z,32.42
2023-03-17T00:43:51.770Z,26.25
2023-03-17T00:46:27.057Z,34.35
2023-03-17T00:48:58.137Z,26.48
2023-03-17T00:51:28.421Z,27.77
2023-03-17T00:53:57.798Z,31.55
2023-03-17T00:56:29.002Z,34.30
2023-03-17T00:58:58.869Z,29.80
2023-03-17T01:01:28.659Z,31.83
2023-03-17T01:03:58.155Z,28.30
2023-03-17T01:06:28.114Z,22.08
2023-03-17T01:08:57.882Z,25.63
2023-03-17T01:11:30.630Z,25.40
2023-03-17T01:14:00.209Z,21.63
2023-03-17T01:16:30.024Z,24.23
2023-03-17T01:18:59.696Z,23.20
2023-03-17T01:21:29.731Z,26.13
2023-03-17T01:23:59.184Z,20.70
2023-03-17T01:26:30.433Z,22.55
2023-03-17T01:29:00.443Z,23.42
2023-03-17T01:31:30.789Z,24.85
2023-03-17T01:34:00.270Z,28.57
2023-03-17T01:36:30.227Z,23.98
2023-03-17T01:38:59.821Z,29.05
2023-03-17T01:41:34.345Z,24.02
2023-03-17T01:44:03.973Z,23.20
2023-03-17T01:46:35.172Z,24.55
2023-03-17T01:49:14.724Z,24.95
2023-03-17T01:51:52.120Z,21.80
2023-03-17T01:54:28.489Z,26.30
2023-03-17T01:57:04.110Z,20.63
2023-03-17T01:59:38.079Z,29.70
2023-03-17T02:02:12.878Z,24.25
2023-03-17T02:04:42.235Z,20.15
2023-03-17T02:07:13.327Z,26.85
2023-03-17T02:09:43.425Z,18.02
2023-03-17T02:12:15.623Z,23.35
2023-03-17T02:14:47.111Z,27.15
2023-03-17T02:17:17.417Z,23.92
2023-03-17T02:19:46.716Z,27.00
2023-03-17T02:22:19.460Z,28.63
2023-03-17T02:24:52.677Z,22.90
2023-03-17T02:27:28.053Z,23.25
2023-03-17T02:29:58.347Z,25.17
2023-03-17T02:32:28.505Z,22.58
2023-03-17T02:34:58.138Z,23.67
2023-03-17T02:37:29.541Z,24.67
2023-03-17T02:42:29.052Z,23.73
2023-03-17T02:44:58.856Z,36.05
2023-03-17T02:47:28.946Z,27.13
2023-03-17T02:49:59.234Z,32.33
2023-03-17T02:52:30.387Z,25.65
2023-03-17T02:54:59.821Z,21.27
2023-03-17T02:57:29.979Z,29.23
2023-03-17T02:59:59.937Z,28.33
2023-03-17T03:02:30.309Z,23.38
2023-03-17T03:05:00.152Z,29.75
2023-03-17T03:07:31.881Z,25.23
2023-03-17T03:12:31.133Z,23.33
2023-03-17T03:15:01.231Z,24.77
2023-03-17T03:17:31.515Z,30.77
2023-03-17T03:20:00.929Z,30.67
2023-03-17T03:22:32.706Z,29.40
2023-03-17T03:25:02.007Z,27.98
2023-03-17T03:27:32.535Z,31.05
2023-03-17T03:30:01.874Z,23.25
2023-03-17T03:32:32.140Z,16.77
2023-03-17T03:35:01.769Z,19.52
2023-03-17T03:37:32.912Z,24.80
2023-03-17T03:40:02.562Z,28.00
2023-03-17T03:42:32.561Z,24.77
2023-03-17T03:45:02.165Z,21.48
2023-03-17T03:47:32.386Z,18.80
2023-03-17T03:50:01.744Z,17.02
2023-03-17T03:52:33.070Z,22.38
2023-03-17T03:55:02.943Z,20.02
2023-03-17T03:57:32.819Z,17.60
2023-03-17T04:00:02.284Z,23.13
2023-03-17T04:02:32.348Z,24.23
2023-03-17T04:05:02.067Z,24.67
2023-03-17T04:07:33.635Z,18.43
2023-03-17T04:12:32.696Z,21.02
2023-03-17T04:15:02.621Z,21.88
2023-03-17T04:17:32.436Z,23.50
2023-03-17T04:20:01.788Z,20.35
2023-03-17T04:22:33.378Z,21.30
2023-03-17T04:25:02.798Z,26.13
2023-03-17T04:27:33.292Z,37.15
2023-03-17T04:30:02.969Z,22.50
2023-03-17T04:32:32.831Z,19.83
2023-03-17T04:35:02.321Z,26.73
2023-03-17T04:37:34.649Z,23.80
2023-03-17T04:40:04.894Z,27.88
2023-03-17T04:42:34.680Z,22.65
2023-03-17T04:45:04.277Z,26.38
2023-03-17T04:47:34.132Z,19.67
2023-03-17T04:50:04.133Z,23.20
2023-03-17T04:52:35.436Z,31.02
2023-03-17T04:57:34.555Z,27.88
2023-03-17T05:00:04.077Z,28.92
2023-03-17T05:02:34.551Z,22.50
2023-03-17T05:05:03.983Z,30.47
2023-03-17T05:07:35.713Z,30.52
2023-03-17T05:10:07.087Z,28.92
2023-03-17T05:12:37.143Z,27.10
2023-03-17T05:15:07.437Z,30.65
2023-03-17T05:17:37.259Z,27.27
2023-03-17T05:20:08.653Z,26.20
2023-03-17T05:22:39.818Z,28.05
2023-03-17T05:25:09.786Z,33.15
2023-03-17T05:27:39.987Z,33.33
2023-03-17T05:30:10.803Z,38.80
2023-03-17T05:32:40.672Z,39.40
2023-03-17T05:35:10.630Z,32.55
2023-03-17T05:37:42.040Z,34.22
2023-03-17T05:42:41.769Z,36.70
2023-03-17T05:45:12.698Z,38.38
2023-03-17T05:47:42.407Z,33.03
2023-03-17T05:50:13.128Z,36.25
2023-03-17T05:52:44.721Z,29.95
2023-03-17T05:55:14.171Z,35.92
2023-03-17T05:57:44.019Z,36.75
2023-03-17T06:00:16.468Z,40.33
2023-03-17T06:02:46.580Z,34.50
2023-03-17T06:05:16.002Z,39.28
2023-03-17T06:07:53.991Z,35.67
2023-03-17T06:10:26.058Z,34.08
2023-03-17T06:12:56.175Z,35.92
2023-03-17T06:15:25.690Z,41.40
2023-03-17T06:17:55.823Z,42.55
2023-03-17T06:20:26.110Z,41.00
2023-03-17T06:23:04.281Z,43.00
2023-03-17T06:25:35.733Z,38.92
2023-03-17T06:30:38.784Z,44.90
2023-03-17T06:33:10.824Z,40.15
2023-03-17T06:35:40.797Z,50.00
2023-03-17T06:38:12.176Z,38.10
2023-03-17T06:40:42.591Z,46.47
2023-03-17T06:43:12.044Z,51.15
2023-03-17T06:45:42.453Z,42.72
2023-03-17T06:48:11.715Z,47.10
2023-03-17T06:50:41.507Z,54.63
2023-03-17T06:53:13.008Z,41.08
2023-03-17T06:55:43.517Z,36.92
2023-03-17T06:58:13.626Z,42.70
2023-03-17T07:00:43.486Z,36.85
2023-03-17T07:03:13.149Z,37.00
2023-03-17T07:05:43.433Z,32.15
2023-03-17T07:08:14.210Z,36.42
2023-03-17T07:10:46.124Z,45.28
2023-03-17T07:13:15.468Z,35.90
2023-03-17T07:15:47.331Z,33.07
2023-03-17T07:18:17.361Z,34.75
2023-03-17T07:20:47.229Z,40.53
2023-03-17T07:23:21.911Z,34.55
2023-03-17T07:25:52.047Z,41.53
2023-03-17T07:28:22.342Z,36.05
2023-03-17T07:30:52.454Z,43.42
2023-03-17T07:33:22.819Z,34.47
2023-03-17T07:35:52.681Z,42.35
2023-03-17T07:38:23.842Z,38.53
2023-03-17T07:40:54.039Z,38.80
2023-03-17T07:43:24.193Z,37.55
2023-03-17T07:45:54.033Z,31.48
2023-03-17T07:48:23.610Z,35.17
2023-03-17T07:50:53.436Z,34.15
2023-03-17T07:53:24.905Z,40.33
2023-03-17T07:55:54.736Z,34.30
2023-03-17T07:58:24.457Z,35.20
2023-03-17T08:00:54.310Z,37.43
2023-03-17T08:03:23.856Z,28.77
2023-03-17T08:05:55.624Z,29.88
2023-03-17T08:08:27.555Z,31.08
2023-03-17T08:11:04.165Z,30.38
2023-03-17T08:13:33.725Z,36.58
2023-03-17T08:16:03.991Z,34.50
2023-03-17T08:18:33.492Z,33.53
2023-03-17T08:21:03.772Z,28.95
2023-03-17T08:23:34.820Z,37.65
2023-03-17T08:26:06.180Z,31.48
2023-03-17T08:31:13.234Z,31.75
2023-03-17T08:33:42.985Z,27.67
2023-03-17T08:36:13.720Z,33.40
2023-03-17T08:38:45.338Z,31.17
2023-03-17T08:41:17.278Z,27.85
2023-03-17T08:43:47.443Z,25.65
2023-03-17T08:46:22.018Z,21.63
2023-03-17T08:48:52.970Z,28.13
2023-03-17T08:51:24.592Z,26.58
2023-03-17T08:53:56.572Z,29.83
2023-03-17T08:56:27.369Z,28.65
2023-03-17T08:58:56.771Z,30.33
2023-03-17T09:01:27.720Z,25.95
2023-03-17T09:03:57.288Z,25.55
2023-03-17T09:06:27.914Z,30.35
2023-03-17T09:08:58.722Z,29.35
2023-03-17T09:11:30.013Z,31.85
2023-03-17T09:13:59.486Z,26.90
2023-03-17T09:16:34.221Z,30.13
2023-03-17T09:19:04.063Z,21.75
2023-03-17T09:21:33.898Z,28.13
2023-03-17T09:24:04.904Z,29.08
2023-03-17T09:26:34.711Z,27.40
2023-03-17T09:29:05.172Z,26.73
2023-03-17T09:34:06.927Z,27.13
2023-03-17T09:36:36.625Z,28.58
2023-03-17T09:39:07.669Z,22.67
2023-03-17T09:42:00.224Z,23.52
2023-03-17T09:44:46.238Z,29.35
2023-03-17T09:47:36.858Z,23.05
2023-03-17T09:50:14.502Z,22.80
2023-03-17T09:52:45.123Z,29.02
2023-03-17T09:55:27.324Z,26.58
2023-03-17T09:57:59.104Z,23.60
2023-03-17T10:00:31.482Z,20.98
2023-03-17T10:03:01.852Z,21.23
2023-03-17T10:05:35.464Z,24.13
2023-03-17T10:08:28.938Z,23.40
2023-03-17T10:11:04.782Z,30.33
2023-03-17T10:13:47.270Z,21.77
2023-03-17T10:16:19.965Z,16.42
2023-03-17T10:19:10.678Z,22.63
2023-03-17T10:21:50.073Z,18.45
2023-03-17T10:24:21.059Z,22.38
2023-03-17T10:26:54.473Z,17.50
2023-03-17T10:29:25.671Z,18.40
2023-03-17T10:31:58.283Z,20.40
2023-03-17T10:34:31.068Z,18.08
2023-03-17T10:37:05.768Z,16.48
2023-03-17T10:39:47.133Z,13.82
2023-03-17T10:42:24.110Z,19.35
2023-03-17T10:44:57.219Z,16.42
2023-03-17T10:47:31.999Z,12.75
2023-03-17T10:50:06.042Z,16.38
2023-03-17T10:52:41.068Z,15.55
2023-03-17T10:55:14.569Z,16.33
2023-03-17T10:57:54.201Z,12.82
2023-03-17T11:00:25.211Z,16.83
2023-03-17T11:02:58.661Z,11.48
2023-03-17T11:05:30.550Z,15.63
2023-03-17T11:08:07.602Z,12.18
2023-03-17T11:10:41.897Z,13.98
2023-03-17T11:13:18.258Z,13.48
2023-03-17T11:15:54.657Z,18.33
2023-03-17T11:18:30.092Z,14.82
2023-03-17T11:21:05.329Z,18.25
2023-03-17T11:23:53.801Z,15.77
2023-03-17T11:26:44.694Z,15.98
2023-03-17T11:29:34.191Z,16.88
2023-03-17T11:32:16.820Z,14.45
2023-03-17T11:35:03.017Z,14.40
2023-03-17T11:37:52.767Z,12.98
2023-03-17T11:40:29.555Z,13.60
2023-03-17T11:43:21.064Z,13.35
2023-03-17T11:45:55.857Z,12.50
2023-03-17T11:48:39.726Z,15.85
2023-03-17T11:51:17.700Z,13.73
2023-03-17T11:54:11.135Z,13.45
2023-03-17T11:56:45.758Z,11.98
2023-03-17T11:59:26.086Z,14.20
2023-03-17T12:02:08.172Z,13.67
2023-03-17T12:04:40.136Z,13.35
2023-03-17T12:07:18.515Z,15.55
2023-03-17T12:09:52.385Z,17.63
2023-03-17T12:12:29.128Z,11.60
2023-03-17T12:15:01.239Z,17.95
2023-03-17T12:17:36.330Z,19.10
2023-03-17T12:20:16.664Z,13.82
2023-03-17T12:22:50.219Z,18.35
2023-03-17T12:25:27.321Z,13.32
2023-03-17T12:28:02.427Z,13.35
2023-03-17T12:30:37.497Z,15.65
2023-03-17T12:33:22.353Z,19.23
2023-03-17T12:35:52.356Z,15.55
2023-03-17T12:38:27.172Z,17.42
2023-03-17T12:41:19.343Z,15.70
2023-03-17T12:44:02.802Z,15.25
2023-03-17T12:47:08.025Z,16.17
2023-03-17T12:50:14.659Z,17.73
2023-03-17T12:52:54.337Z,17.65
2023-03-17T12:55:28.245Z,16.33
2023-03-17T12:58:04.041Z,13.05
2023-03-17T13:00:37.040Z,14.68
2023-03-17T13:03:18.528Z,17.20
2023-03-17T13:08:26.271Z,12.95
2023-03-17T13:11:18.151Z,18.00
2023-03-17T13:13:59.610Z,15.18
2023-03-17T13:16:32.815Z,15.10
2023-03-17T13:19:24.698Z,18.40
2023-03-17T13:22:26.507Z,15.60
2023-03-17T13:24:56.147Z,14.52
2023-03-17T13:27:50.404Z,16.27
2023-03-17T13:30:53.817Z,16.52
2023-03-17T13:33:27.510Z,17.27
2023-03-17T13:36:17.924Z,17.10
2023-03-17T13:39:19.236Z,22.10
2023-03-17T13:42:19.140Z,18.58
2023-03-17T13:45:12.215Z,17.83
2023-03-17T13:47:43.381Z,16.60
2023-03-17T13:50:17.562Z,17.63
2023-03-17T13:52:50.985Z,22.25
2023-03-17T13:55:42.349Z,18.27
2023-03-17T13:58:34.868Z,15.30
2023-03-17T14:01:11.405Z,20.48
2023-03-17T14:03:45.538Z,15.48
2023-03-17T14:06:16.634Z,17.13
2023-03-17T14:08:54.123Z,20.15
2023-03-17T14:11:30.186Z,18.25
2023-03-17T14:14:31.153Z,17.88
2023-03-17T14:17:06.716Z,15.43
2023-03-17T14:19:39.338Z,18.58
2023-03-17T14:22:22.177Z,12.80
2023-03-17T14:24:56.356Z,14.43
2023-03-17T14:27:28.526Z,20.55
2023-03-17T14:29:58.337Z,14.50
2023-03-17T14:32:27.975Z,18.15
2023-03-17T14:35:00.168Z,17.33
2023-03-17T14:37:29.907Z,16.55
2023-03-17T14:40:00.685Z,13.82
2023-03-17T14:42:33.320Z,16.40
2023-03-17T14:45:05.418Z,14.13
2023-03-17T14:47:41.293Z,15.50
2023-03-17T14:50:18.831Z,16.55
2023-03-17T14:52:48.220Z,20.40
2023-03-17T14:55:20.074Z,16.20
2023-03-17T14:57:55.113Z,12.57
2023-03-17T15:00:34.616Z,18.10
2023-03-17T15:03:16.201Z,17.30
2023-03-17T15:05:47.874Z,16.13
2023-03-17T15:08:46.419Z,17.38
2023-03-17T15:11:22.226Z,17.92
2023-03-17T15:13:57.310Z,17.35
2023-03-17T15:16:32.040Z,14.18
2023-03-17T15:19:10.230Z,15.27
2023-03-17T15:21:42.627Z,14.63
2023-03-17T15:24:26.516Z,17.45
2023-03-17T15:27:06.671Z,20.60
2023-03-17T15:29:37.847Z,19.73
2023-03-17T15:32:16.946Z,12.40
2023-03-17T15:34:46.494Z,15.10
2023-03-17T15:37:21.412Z,23.05
2023-03-17T15:39:53.116Z,14.68
2023-03-17T15:42:25.317Z,18.20
2023-03-17T15:44:56.567Z,15.27
2023-03-17T15:47:29.067Z,13.90
2023-03-17T15:50:00.350Z,12.40
2023-03-17T15:52:30.653Z,16.25
2023-03-17T15:55:00.956Z,14.80
2023-03-17T15:57:31.555Z,17.83
2023-03-17T16:00:02.813Z,14.27
2023-03-17T16:02:34.988Z,18.73
2023-03-17T16:05:14.668Z,16.63
2023-03-17T16:07:44.479Z,14.63
2023-03-17T16:10:23.312Z,17.00
2023-03-17T16:12:53.128Z,17.88
2023-03-17T16:15:26.328Z,18.30
2023-03-17T16:17:59.721Z,16.83
2023-03-17T16:20:31.652Z,18.88
2023-03-17T16:23:07.639Z,13.88
2023-03-17T16:25:38.796Z,13.93
2023-03-17T16:28:16.855Z,19.35
2023-03-17T16:30:48.937Z,13.00
2023-03-17T16:33:21.207Z,14.98
2023-03-17T16:35:52.625Z,16.05
2023-03-17T16:38:24.740Z,15.88
2023-03-17T16:40:55.892Z,16.80
2023-03-17T16:43:27.743Z,18.80
2023-03-17T16:46:00.925Z,18.38
2023-03-17T16:48:31.416Z,15.77
2023-03-17T16:51:00.997Z,21.45
2023-03-17T16:56:01.526Z,19.02
2023-03-17T16:58:34.790Z,21.33
2023-03-17T17:01:11.549Z,18.58
2023-03-17T17:03:41.274Z,16.05
2023-03-17T17:06:13.574Z,15.07
2023-03-17T17:08:44.909Z,17.88
2023-03-17T17:11:14.953Z,19.50
2023-03-17T17:13:46.173Z,17.45
2023-03-17T17:16:24.771Z,19.30
2023-03-17T17:18:55.183Z,19.23
2023-03-17T17:21:24.847Z,17.08
2023-03-17T17:23:54.620Z,13.77
2023-03-17T17:26:24.727Z,21.98
2023-03-17T17:28:55.001Z,18.85
2023-03-17T17:31:26.717Z,17.73
2023-03-17T17:33:57.214Z,16.00
2023-03-17T17:36:27.794Z,11.27
2023-03-17T17:38:58.157Z,17.40
2023-03-17T17:41:27.498Z,15.50
2023-03-17T17:43:57.703Z,17.75
2023-03-17T17:46:28.541Z,18.15
2023-03-17T17:48:58.307Z,13.65
2023-03-17T17:51:29.054Z,21.92
2023-03-17T17:53:58.881Z,20.35
2023-03-17T17:56:28.345Z,19.58
2023-03-17T17:58:59.634Z,18.15
2023-03-17T18:01:30.421Z,15.43
2023-03-17T18:04:00.509Z,17.85
2023-03-17T18:06:30.155Z,17.60
2023-03-17T18:09:00.169Z,16.88
2023-03-17T18:11:29.716Z,21.33
2023-03-17T18:13:59.807Z,17.08
2023-03-17T18:16:30.662Z,20.38
2023-03-17T18:19:02.595Z,23.42
2023-03-17T18:21:32.442Z,18.42
2023-03-17T18:24:02.291Z,17.95
2023-03-17T18:26:32.301Z,19.60
2023-03-17T18:29:02.266Z,24.90
2023-03-17T18:31:35.990Z,17.05
2023-03-17T18:34:08.356Z,20.98
2023-03-17T18:36:37.853Z,22.88
2023-03-17T18:39:08.468Z,24.63
2023-03-17T18:41:38.218Z,18.35
2023-03-17T18:44:10.399Z,26.07
2023-03-17T18:46:41.296Z,18.77
2023-03-17T18:49:11.169Z,17.77
2023-03-17T18:51:41.031Z,25.50
2023-03-17T18:54:12.320Z,17.08
2023-03-17T18:56:41.726Z,20.88
2023-03-17T18:59:11.974Z,19.38
2023-03-17T19:01:42.963Z,21.27
2023-03-17T19:04:12.942Z,14.63
2023-03-17T19:06:43.159Z,18.52
2023-03-17T19:09:14.924Z,20.98
2023-03-17T19:11:44.714Z,22.52
2023-03-17T19:14:14.785Z,19.83
2023-03-17T19:16:47.203Z,18.70
2023-03-17T19:19:18.088Z,21.92
2023-03-17T19:21:48.341Z,20.50
2023-03-17T19:24:22.783Z,16.73
2023-03-17T19:26:52.529Z,25.63
2023-03-17T19:29:23.862Z,21.37
2023-03-17T19:34:27.791Z,21.15
2023-03-17T19:36:57.315Z,19.10
2023-03-17T19:39:27.646Z,21.67
2023-03-17T19:41:59.451Z,26.85
2023-03-17T19:44:30.041Z,18.95
2023-03-17T19:47:05.368Z,17.58
2023-03-17T19:49:35.577Z,24.33
2023-03-17T19:52:06.833Z,26.95
2023-03-17T19:54:43.958Z,24.02
2023-03-17T19:57:14.101Z,24.25
2023-03-17T19:59:44.788Z,18.85
2023-03-17T20:02:22.531Z,24.60
2023-03-17T20:04:57.265Z,24.02
2023-03-17T20:07:28.728Z,20.08
2023-03-17T20:10:03.052Z,20.63
2023-03-17T20:12:34.219Z,20.95
2023-03-17T20:15:07.383Z,24.35
2023-03-17T20:17:40.877Z,23.20
2023-03-17T20:20:19.774Z,21.98
2023-03-17T20:22:53.201Z,17.90
2023-03-17T20:25:34.728Z,18.10
2023-03-17T20:28:06.413Z,27.42
2023-03-17T20:30:41.001Z,27.40
2023-03-17T20:33:21.683Z,19.75
2023-03-17T20:35:55.445Z,21.85
2023-03-17T20:38:33.200Z,25.02
2023-03-17T20:41:09.569Z,17.17
2023-03-17T20:43:43.985Z,21.83
2023-03-17T20:46:20.930Z,21.98
2023-03-17T20:48:59.786Z,24.65
2023-03-17T20:51:32.718Z,19.17
2023-03-17T20:54:09.065Z,19.38
2023-03-17T20:56:42.230Z,22.35
2023-03-17T20:59:15.722Z,24.02
2023-03-17T21:01:52.996Z,16.98
2023-03-17T21:04:25.447Z,16.20
2023-03-17T21:07:01.001Z,22.30
2023-03-17T21:09:32.614Z,23.70
2023-03-17T21:12:06.557Z,18.48
2023-03-17T21:14:37.396Z,21.30
2023-03-17T21:17:10.332Z,21.48
2023-03-17T21:22:21.581Z,23.95
2023-03-17T21:25:00.039Z,22.75
2023-03-17T21:27:34.486Z,23.63
2023-03-17T21:30:09.187Z,21.58
2023-03-17T21:32:40.499Z,21.27
2023-03-17T21:35:20.814Z,19.55
2023-03-17T21:37:53.600Z,22.50
2023-03-17T21:42:57.288Z,22.88
2023-03-17T21:45:27.430Z,20.35
2023-03-17T21:47:58.063Z,21.60
2023-03-17T21:50:30.155Z,25.03
2023-03-17T21:53:03.324Z,22.73
2023-03-17T21:55:33.555Z,23.63
2023-03-17T21:58:04.136Z,17.35
2023-03-17T22:00:44.748Z,21.30
2023-03-17T22:03:17.820Z,20.58
2023-03-17T22:05:52.147Z,18.48
2023-03-17T22:08:23.948Z,21.33
2023-03-17T22:10:53.810Z,27.60
2023-03-17T22:13:23.717Z,21.25
2023-03-17T22:15:53.914Z,21.15
2023-03-17T22:20:57.944Z,20.77
2023-03-17T22:23:28.034Z,22.67
2023-03-17T22:25:57.791Z,23.00
2023-03-17T22:28:28.245Z,24.88
2023-03-17T22:30:58.197Z,24.33
2023-03-17T22:33:28.734Z,23.70
2023-03-17T22:35:59.479Z,24.03
2023-03-17T22:38:29.651Z,21.80
2023-03-17T22:41:05.029Z,21.40
2023-03-17T22:43:36.908Z,22.88
2023-03-17T22:46:07.539Z,24.05
2023-03-17T22:48:38.398Z,25.02
2023-03-17T22:51:11.781Z,25.73
2023-03-17T22:53:42.180Z,21.63
2023-03-17T22:56:13.045Z,23.38
2023-03-17T22:58:43.305Z,23.90
2023-03-17T23:01:13.785Z,24.02
2023-03-17T23:03:43.867Z,19.45
2023-03-17T23:06:15.337Z,18.63
2023-03-17T23:08:46.174Z,17.23
2023-03-17T23:11:19.556Z,22.40
2023-03-17T23:13:50.968Z,26.20
2023-03-17T23:18:51.048Z,22.23
2023-03-17T23:21:37.998Z,23.75
2023-03-17T23:24:09.165Z,20.73
2023-03-17T23:26:39.033Z,19.38
2023-03-17T23:29:10.606Z,23.05
2023-03-17T23:31:41.229Z,21.60
2023-03-17T23:36:47.107Z,20.05
2023-03-17T23:39:17.353Z,24.02
2023-03-17T23:41:46.706Z,23.73
2023-03-17T23:44:16.894Z,19.17
2023-03-17T23:46:46.671Z,21.92
2023-03-17T23:49:16.870Z,27.30
2023-03-17T23:51:48.478Z,22.00
2023-03-17T23:54:19.150Z,18.88
2023-03-17T23:56:48.449Z,23.45
2023-03-17T23:59:18.834Z,20.27
